KUVA/UVA METAR and TAF weather

Enter ICAO airport designator
Station Type Date Time Source
KUVA METAR 2019/08/25 14:35 UTC NOAA

KUVA 251435Z AUTO 00000KT 5SM BR SCT011 SCT016 26/25 A2993 RMK AO2 T02620247


Station Type Date Time Source
KUVA Decoded METAR 2019/08/25 14:35 UTC NOAA

Station name not available
Aug 25, 2019 - 10:35 AM EDT / 2019.08.25 1435 UTC
Wind: Calm:0
Visibility: 5 mile(s):0
Sky conditions: partly cloudy
Weather: mist
Temperature: 79.2 F (26.2 C)
Dew Point: 76.5 F (24.7 C)
Relative Humidity: 91%
Pressure (altimeter): 29.93 in. Hg (1013 hPa)
ob: KUVA 251435Z AUTO 00000KT 5SM BR SCT011 SCT016 26/25 A2993 RMK AO2 T02620247
cycle: 14

Station Type Date Time Source
KUVA TAF UTC NOAA

Error!

Example: see airport list